EAF9754 LFLL-OJAQ
Flight info
| Callsign | EAF9754 |
|---|---|
| Flight time | 4h 19m |
| Altitude | 23000 |
| Route | RISOR T47 GEMLA DCT VANAS DCT MEDAM DCT NITAM DCT MOGBO/N0445F370 DCT GEN DCT KUGIX DCT DIVKU DCT NOSTO DCT KUMBI L612 BLT Y188 DATOK L550 KARIK B411 ULINA |
| Aircraft | A320/M-SDE2E3FGIJ1LORWXYZ/HB1 |
Departure
| Time | 2026-03-23 04:17 |
|---|---|
| Airport | Lyon Saint-Exupéry Airport (LFLL) |
Arrival
| Time | 2026-03-23 08:36 |
|---|---|
| Airport | King Hussein International Airport (OJAQ) |
| Time | Latitude | Longitude | Altitude | Speed | Heading |
|---|---|---|---|---|---|
| 2026-03-23 03:43 | 45.71888 | 5.08318 | 800 ft | 0 kts | 104° |
| 2026-03-23 04:10 | 45.71887 | 5.08322 | 799 ft | 1 kts | 104° |
| 2026-03-23 04:10 | 45.71883 | 5.08348 | 799 ft | 4 kts | 104° |
| 2026-03-23 04:10 | 45.71880 | 5.08393 | 800 ft | 5 kts | 80° |
| 2026-03-23 04:11 | 45.71887 | 5.08439 | 801 ft | 5 kts | 81° |
| 2026-03-23 04:11 | 45.71859 | 5.08472 | 802 ft | 8 kts | 171° |
| 2026-03-23 04:11 | 45.71784 | 5.08482 | 802 ft | 14 kts | 175° |
| 2026-03-23 04:11 | 45.71671 | 5.08496 | 802 ft | 19 kts | 175° |
| 2026-03-23 04:12 | 45.71532 | 5.08513 | 803 ft | 21 kts | 175° |
| 2026-03-23 04:12 | 45.71405 | 5.08528 | 810 ft | 17 kts | 175° |
| 2026-03-23 04:12 | 45.71291 | 5.08540 | 813 ft | 17 kts | 176° |
| 2026-03-23 04:12 | 45.71174 | 5.08554 | 815 ft | 14 kts | 170° |
| 2026-03-23 04:13 | 45.71118 | 5.08630 | 818 ft | 11 kts | 105° |
| 2026-03-23 04:13 | 45.71101 | 5.08729 | 817 ft | 8 kts | 103° |
| 2026-03-23 04:13 | 45.71099 | 5.08741 | 819 ft | 0 kts | 104° |
| 2026-03-23 04:14 | 45.71096 | 5.08760 | 819 ft | 6 kts | 104° |
| 2026-03-23 04:15 | 45.71081 | 5.08840 | 820 ft | 10 kts | 104° |
| 2026-03-23 04:15 | 45.71077 | 5.08942 | 821 ft | 11 kts | 85° |
| 2026-03-23 04:15 | 45.71096 | 5.09031 | 819 ft | 7 kts | 31° |
| 2026-03-23 04:15 | 45.71135 | 5.09026 | 820 ft | 8 kts | 355° |
| 2026-03-23 04:16 | 45.71311 | 5.09004 | 818 ft | 55 kts | 355° |
| 2026-03-23 04:16 | 45.71916 | 5.08933 | 811 ft | 115 kts | 355° |
| 2026-03-23 04:16 | 45.72883 | 5.08815 | 793 ft | 161 kts | 355° |
| 2026-03-23 04:16 | 45.74065 | 5.08665 | 1147 ft | 170 kts | 355° |
| 2026-03-23 04:17 | 45.75236 | 5.08518 | 1792 ft | 171 kts | 355° |
| 2026-03-23 04:17 | 45.76446 | 5.08372 | 2271 ft | 182 kts | 354° |
| 2026-03-23 04:17 | 45.77776 | 5.08213 | 2556 ft | 202 kts | 354° |
| 2026-03-23 04:17 | 45.79255 | 5.08033 | 2839 ft | 224 kts | 354° |
| 2026-03-23 04:18 | 45.80867 | 5.08173 | 3316 ft | 239 kts | 18° |
| 2026-03-23 04:18 | 45.82280 | 5.09439 | 4039 ft | 244 kts | 50° |
| 2026-03-23 04:18 | 45.83021 | 5.11576 | 4793 ft | 246 kts | 83° |
| 2026-03-23 04:18 | 45.82879 | 5.14006 | 5602 ft | 248 kts | 108° |
| 2026-03-23 04:19 | 45.82285 | 5.16337 | 6467 ft | 250 kts | 109° |
| 2026-03-23 04:19 | 45.81666 | 5.18675 | 7257 ft | 252 kts | 109° |
| 2026-03-23 04:19 | 45.81041 | 5.21034 | 8053 ft | 254 kts | 109° |
| 2026-03-23 04:19 | 45.80447 | 5.23438 | 8841 ft | 256 kts | 106° |
| 2026-03-23 04:20 | 45.80076 | 5.25055 | 9376 ft | 258 kts | 105° |
| 2026-03-23 04:20 | 45.79531 | 5.27520 | 10152 ft | 260 kts | 105° |
| 2026-03-23 04:20 | 45.78810 | 5.30825 | 11070 ft | 264 kts | 105° |
| 2026-03-23 04:20 | 45.78245 | 5.33412 | 11422 ft | 283 kts | 105° |
| 2026-03-23 04:21 | 45.77631 | 5.36217 | 11595 ft | 306 kts | 105° |
| 2026-03-23 04:21 | 45.77197 | 5.38192 | 11691 ft | 321 kts | 105° |
| 2026-03-23 04:21 | 45.76509 | 5.41291 | 12163 ft | 330 kts | 105° |
| 2026-03-23 04:21 | 45.75802 | 5.44447 | 12811 ft | 335 kts | 105° |
| 2026-03-23 04:22 | 45.75084 | 5.47643 | 13495 ft | 338 kts | 105° |
| 2026-03-23 04:22 | 45.74357 | 5.50863 | 14143 ft | 342 kts | 105° |
| 2026-03-23 04:22 | 45.73620 | 5.54126 | 14714 ft | 345 kts | 105° |
| 2026-03-23 04:22 | 45.72886 | 5.57379 | 15283 ft | 348 kts | 105° |
| 2026-03-23 04:23 | 45.72137 | 5.60699 | 15865 ft | 351 kts | 104° |
| 2026-03-23 04:23 | 45.71385 | 5.64033 | 16453 ft | 354 kts | 104° |
| 2026-03-23 04:23 | 45.70622 | 5.67415 | 17049 ft | 357 kts | 104° |
| 2026-03-23 04:23 | 45.69857 | 5.70809 | 17652 ft | 360 kts | 104° |
| 2026-03-23 04:24 | 45.69087 | 5.74203 | 18241 ft | 363 kts | 104° |
| 2026-03-23 04:24 | 45.68301 | 5.77656 | 18789 ft | 366 kts | 104° |
| 2026-03-23 04:24 | 45.67507 | 5.81132 | 19322 ft | 369 kts | 104° |
| 2026-03-23 04:24 | 45.66706 | 5.84635 | 19889 ft | 372 kts | 104° |
| 2026-03-23 04:25 | 45.65900 | 5.88168 | 20463 ft | 374 kts | 104° |
| 2026-03-23 04:25 | 45.65089 | 5.91719 | 21003 ft | 377 kts | 104° |
| 2026-03-23 04:25 | 45.64272 | 5.95294 | 21543 ft | 379 kts | 103° |
| 2026-03-23 04:25 | 45.63451 | 5.98884 | 22057 ft | 381 kts | 103° |
| 2026-03-23 04:26 | 45.62628 | 6.02457 | 22579 ft | 384 kts | 103° |
| 2026-03-23 04:26 | 45.61791 | 6.06092 | 23049 ft | 387 kts | 103° |
| 2026-03-23 04:26 | 45.60960 | 6.09680 | 24110 ft | 370 kts | 103° |
| 2026-03-23 04:27 | 45.59414 | 6.16257 | 26380 ft | 329 kts | 101° |
| 2026-03-23 04:27 | 45.58696 | 6.19325 | 27035 ft | 322 kts | 100° |
| 2026-03-23 04:27 | 45.58000 | 6.22335 | 27401 ft | 323 kts | 99° |
| 2026-03-23 04:27 | 45.57300 | 6.25386 | 27783 ft | 324 kts | 100° |
| 2026-03-23 04:28 | 45.56595 | 6.28444 | 28132 ft | 326 kts | 100° |
| 2026-03-23 04:28 | 45.55879 | 6.31545 | 28316 ft | 331 kts | 100° |
| 2026-03-23 04:28 | 45.55147 | 6.34710 | 28459 ft | 339 kts | 100° |
| 2026-03-23 04:28 | 45.54399 | 6.37939 | 28600 ft | 347 kts | 100° |
| 2026-03-23 04:29 | 45.53632 | 6.41242 | 28746 ft | 355 kts | 101° |
| 2026-03-23 04:29 | 45.52849 | 6.44590 | 28890 ft | 365 kts | 101° |
| 2026-03-23 04:29 | 45.52034 | 6.48063 | 29041 ft | 374 kts | 101° |
| 2026-03-23 04:29 | 45.51198 | 6.51627 | 29175 ft | 382 kts | 101° |
| 2026-03-23 04:30 | 45.50343 | 6.55261 | 29317 ft | 390 kts | 101° |
| 2026-03-23 04:30 | 45.49468 | 6.58967 | 29465 ft | 397 kts | 101° |
| 2026-03-23 04:30 | 45.48585 | 6.62690 | 29624 ft | 405 kts | 102° |
| 2026-03-23 04:30 | 45.47672 | 6.66525 | 29782 ft | 411 kts | 102° |
| 2026-03-23 04:31 | 45.46745 | 6.70424 | 29928 ft | 417 kts | 102° |
| 2026-03-23 04:31 | 45.45724 | 6.74347 | 30077 ft | 428 kts | 108° |
| 2026-03-23 04:31 | 45.44295 | 6.78093 | 30268 ft | 440 kts | 115° |
| 2026-03-23 04:31 | 45.42702 | 6.81818 | 30568 ft | 441 kts | 115° |
| 2026-03-23 04:32 | 45.41105 | 6.85554 | 30961 ft | 441 kts | 115° |
| 2026-03-23 04:32 | 45.39508 | 6.89288 | 31309 ft | 441 kts | 115° |
| 2026-03-23 04:32 | 45.37914 | 6.93015 | 31673 ft | 441 kts | 115° |
| 2026-03-23 04:32 | 45.36323 | 6.96731 | 32020 ft | 441 kts | 115° |
| 2026-03-23 04:33 | 45.34724 | 7.00460 | 32404 ft | 442 kts | 116° |
| 2026-03-23 04:33 | 45.33119 | 7.04207 | 32768 ft | 442 kts | 116° |
| 2026-03-23 04:33 | 45.31520 | 7.07938 | 33098 ft | 442 kts | 116° |
| 2026-03-23 04:33 | 45.29920 | 7.11671 | 33428 ft | 442 kts | 116° |
| 2026-03-23 04:34 | 45.28337 | 7.15355 | 33791 ft | 443 kts | 116° |
| 2026-03-23 04:34 | 45.26723 | 7.19107 | 34135 ft | 443 kts | 116° |
| 2026-03-23 04:34 | 45.25118 | 7.22831 | 34408 ft | 443 kts | 116° |
| 2026-03-23 04:34 | 45.23507 | 7.26561 | 34669 ft | 443 kts | 116° |
| 2026-03-23 04:35 | 45.21890 | 7.30299 | 34942 ft | 443 kts | 116° |
| 2026-03-23 04:35 | 45.20279 | 7.34028 | 35232 ft | 443 kts | 117° |
| 2026-03-23 04:35 | 45.18662 | 7.37763 | 35510 ft | 443 kts | 117° |
| 2026-03-23 04:35 | 45.17061 | 7.41453 | 35787 ft | 443 kts | 117° |
| 2026-03-23 04:36 | 45.15439 | 7.45180 | 36051 ft | 443 kts | 117° |
| 2026-03-23 04:36 | 45.13818 | 7.48897 | 36297 ft | 443 kts | 117° |
| 2026-03-23 04:36 | 45.12196 | 7.52613 | 36550 ft | 444 kts | 117° |
| 2026-03-23 04:36 | 45.10570 | 7.56340 | 36768 ft | 445 kts | 117° |
| 2026-03-23 04:37 | 45.08939 | 7.60076 | 36975 ft | 445 kts | 117° |
| 2026-03-23 04:37 | 45.07306 | 7.63812 | 37054 ft | 448 kts | 118° |
| 2026-03-23 04:37 | 45.04011 | 7.71330 | 37060 ft | 450 kts | 118° |
| 2026-03-23 04:38 | 45.00723 | 7.78812 | 37065 ft | 451 kts | 118° |
| 2026-03-23 04:38 | 44.97406 | 7.86331 | 37047 ft | 451 kts | 118° |
| 2026-03-23 04:39 | 44.94077 | 7.93853 | 37020 ft | 451 kts | 118° |
| 2026-03-23 04:39 | 44.90766 | 8.01317 | 37000 ft | 451 kts | 118° |
| 2026-03-23 04:40 | 44.87429 | 8.08834 | 36989 ft | 452 kts | 118° |
| 2026-03-23 04:40 | 44.84089 | 8.16341 | 36966 ft | 452 kts | 118° |
| 2026-03-23 04:41 | 44.80739 | 8.23858 | 36965 ft | 452 kts | 118° |
| 2026-03-23 04:41 | 44.77406 | 8.31308 | 36966 ft | 452 kts | 119° |
| 2026-03-23 04:42 | 44.74044 | 8.38790 | 37006 ft | 452 kts | 119° |
| 2026-03-23 04:42 | 44.70672 | 8.46266 | 37098 ft | 453 kts | 119° |
| 2026-03-23 04:43 | 44.67283 | 8.53759 | 37088 ft | 453 kts | 119° |
| 2026-03-23 04:43 | 44.63908 | 8.61234 | 37072 ft | 453 kts | 119° |
| 2026-03-23 04:44 | 44.60538 | 8.68674 | 37061 ft | 454 kts | 120° |
| 2026-03-23 04:44 | 44.57141 | 8.76138 | 37062 ft | 454 kts | 120° |
| 2026-03-23 04:45 | 44.53735 | 8.83615 | 37052 ft | 454 kts | 120° |
| 2026-03-23 04:45 | 44.50344 | 8.91031 | 37039 ft | 454 kts | 120° |
| 2026-03-23 04:46 | 44.46922 | 8.98487 | 37041 ft | 454 kts | 120° |
| 2026-03-23 04:46 | 44.43525 | 9.05876 | 37045 ft | 454 kts | 120° |
| 2026-03-23 04:47 | 44.40471 | 9.13577 | 37065 ft | 452 kts | 115° |
| 2026-03-23 04:47 | 44.37599 | 9.21396 | 37064 ft | 452 kts | 115° |
| 2026-03-23 04:48 | 44.34712 | 9.29222 | 37064 ft | 453 kts | 115° |
| 2026-03-23 04:48 | 44.31833 | 9.36999 | 37068 ft | 453 kts | 115° |
| 2026-03-23 04:49 | 44.28927 | 9.44810 | 37064 ft | 453 kts | 115° |
| 2026-03-23 04:49 | 44.26014 | 9.52615 | 37069 ft | 453 kts | 115° |
| 2026-03-23 04:50 | 44.23099 | 9.60423 | 37064 ft | 453 kts | 115° |
| 2026-03-23 04:50 | 44.20203 | 9.68179 | 37054 ft | 454 kts | 115° |
| 2026-03-23 04:51 | 44.17269 | 9.75962 | 37049 ft | 454 kts | 116° |
| 2026-03-23 04:51 | 44.14325 | 9.83766 | 37058 ft | 454 kts | 116° |
| 2026-03-23 04:52 | 44.11387 | 9.91542 | 37050 ft | 454 kts | 116° |
| 2026-03-23 04:52 | 44.08448 | 9.99316 | 37046 ft | 454 kts | 116° |
| 2026-03-23 04:53 | 44.05516 | 10.07039 | 37045 ft | 454 kts | 116° |
| 2026-03-23 04:53 | 44.02554 | 10.14805 | 37046 ft | 454 kts | 116° |
| 2026-03-23 04:54 | 43.99585 | 10.22568 | 37056 ft | 454 kts | 116° |
| 2026-03-23 04:54 | 43.96613 | 10.30329 | 37051 ft | 455 kts | 116° |
| 2026-03-23 04:55 | 43.93650 | 10.38045 | 37034 ft | 455 kts | 116° |
| 2026-03-23 04:55 | 43.90666 | 10.45807 | 37029 ft | 456 kts | 116° |
| 2026-03-23 04:56 | 43.87683 | 10.53523 | 37023 ft | 456 kts | 116° |
| 2026-03-23 04:56 | 43.84676 | 10.61283 | 37030 ft | 456 kts | 116° |
| 2026-03-23 04:57 | 43.81673 | 10.69022 | 37030 ft | 456 kts | 116° |
| 2026-03-23 04:57 | 43.78678 | 10.76705 | 37030 ft | 456 kts | 117° |
| 2026-03-23 04:58 | 43.75657 | 10.84427 | 37035 ft | 456 kts | 117° |
| 2026-03-23 04:58 | 43.72644 | 10.92148 | 37039 ft | 455 kts | 116° |
| 2026-03-23 04:59 | 43.69644 | 10.99808 | 37038 ft | 456 kts | 117° |
| 2026-03-23 04:59 | 43.66604 | 11.07522 | 37033 ft | 456 kts | 117° |
| 2026-03-23 05:00 | 43.63566 | 11.15195 | 37030 ft | 457 kts | 117° |
| 2026-03-23 05:00 | 43.60511 | 11.22906 | 37033 ft | 458 kts | 117° |
| 2026-03-23 05:01 | 43.57446 | 11.30632 | 37048 ft | 458 kts | 117° |
| 2026-03-23 05:01 | 43.54383 | 11.38290 | 37052 ft | 459 kts | 118° |
| 2026-03-23 05:02 | 43.51174 | 11.45904 | 37052 ft | 459 kts | 119° |
| 2026-03-23 05:02 | 43.47896 | 11.53462 | 37043 ft | 459 kts | 120° |
| 2026-03-23 05:03 | 43.44633 | 11.61009 | 37019 ft | 459 kts | 119° |
| 2026-03-23 05:03 | 43.41403 | 11.68545 | 36998 ft | 459 kts | 119° |
| 2026-03-23 05:04 | 43.38151 | 11.76142 | 36972 ft | 460 kts | 120° |
| 2026-03-23 05:04 | 43.34905 | 11.83689 | 36954 ft | 461 kts | 120° |
| 2026-03-23 05:05 | 43.31632 | 11.91261 | 36947 ft | 461 kts | 120° |
| 2026-03-23 05:05 | 43.28349 | 11.98843 | 36956 ft | 461 kts | 120° |
| 2026-03-23 05:06 | 43.25072 | 12.06404 | 36982 ft | 461 kts | 120° |
| 2026-03-23 05:06 | 43.21803 | 12.13908 | 37003 ft | 461 kts | 120° |
| 2026-03-23 05:07 | 43.18501 | 12.21461 | 37042 ft | 461 kts | 120° |
| 2026-03-23 05:07 | 43.15193 | 12.29013 | 37022 ft | 462 kts | 121° |
| 2026-03-23 05:08 | 43.11872 | 12.36572 | 37011 ft | 462 kts | 121° |
| 2026-03-23 05:08 | 43.08577 | 12.44062 | 37012 ft | 463 kts | 121° |
| 2026-03-23 05:09 | 43.05247 | 12.51614 | 37013 ft | 463 kts | 121° |
| 2026-03-23 05:09 | 43.01903 | 12.59161 | 37013 ft | 464 kts | 121° |
| 2026-03-23 05:10 | 42.98578 | 12.66654 | 37022 ft | 464 kts | 121° |
| 2026-03-23 05:10 | 42.95227 | 12.74200 | 37030 ft | 464 kts | 121° |
| 2026-03-23 05:11 | 42.91868 | 12.81737 | 37050 ft | 464 kts | 121° |
| 2026-03-23 05:11 | 42.88508 | 12.89257 | 37041 ft | 464 kts | 121° |
| 2026-03-23 05:12 | 42.85162 | 12.96746 | 37043 ft | 465 kts | 122° |
| 2026-03-23 05:12 | 42.82340 | 13.03024 | 37048 ft | 466 kts | 122° |
| 2026-03-23 05:13 | 42.78943 | 13.10549 | 37056 ft | 466 kts | 122° |
| 2026-03-23 05:13 | 42.75547 | 13.18090 | 37062 ft | 467 kts | 122° |
| 2026-03-23 05:14 | 42.72165 | 13.25575 | 37062 ft | 466 kts | 122° |
| 2026-03-23 05:14 | 42.68756 | 13.33084 | 37062 ft | 466 kts | 122° |
| 2026-03-23 05:15 | 42.65337 | 13.40584 | 37056 ft | 466 kts | 122° |
| 2026-03-23 05:15 | 42.61921 | 13.48073 | 37040 ft | 466 kts | 122° |
| 2026-03-23 05:16 | 42.58519 | 13.55535 | 37031 ft | 467 kts | 122° |
| 2026-03-23 05:16 | 42.55080 | 13.63048 | 37033 ft | 468 kts | 123° |
| 2026-03-23 05:17 | 42.51649 | 13.70505 | 37034 ft | 468 kts | 123° |
| 2026-03-23 05:17 | 42.48196 | 13.78006 | 37039 ft | 468 kts | 123° |
| 2026-03-23 05:18 | 42.44740 | 13.85500 | 37038 ft | 469 kts | 123° |
| 2026-03-23 05:18 | 42.41294 | 13.92944 | 37048 ft | 468 kts | 123° |
| 2026-03-23 05:19 | 42.37830 | 14.00410 | 37048 ft | 468 kts | 123° |
| 2026-03-23 05:19 | 42.34367 | 14.07868 | 37003 ft | 468 kts | 123° |
| 2026-03-23 05:20 | 42.30901 | 14.15306 | 36997 ft | 470 kts | 123° |
| 2026-03-23 05:20 | 42.27403 | 14.22782 | 37004 ft | 471 kts | 123° |
| 2026-03-23 05:21 | 42.23895 | 14.30260 | 37016 ft | 471 kts | 124° |
| 2026-03-23 05:21 | 42.20406 | 14.37691 | 37024 ft | 471 kts | 124° |
| 2026-03-23 05:22 | 42.16892 | 14.45163 | 37033 ft | 472 kts | 124° |
| 2026-03-23 05:22 | 42.13369 | 14.52626 | 37032 ft | 472 kts | 124° |
| 2026-03-23 05:23 | 42.09829 | 14.60077 | 37033 ft | 472 kts | 124° |
| 2026-03-23 05:23 | 42.06283 | 14.67536 | 37018 ft | 472 kts | 124° |
| 2026-03-23 05:24 | 42.02759 | 14.74961 | 37023 ft | 473 kts | 124° |
| 2026-03-23 05:24 | 41.99204 | 14.82433 | 37027 ft | 474 kts | 124° |
| 2026-03-23 05:25 | 41.95635 | 14.89901 | 37029 ft | 474 kts | 124° |
| 2026-03-23 05:25 | 41.92057 | 14.97355 | 37021 ft | 475 kts | 124° |
| 2026-03-23 05:26 | 41.88503 | 15.04758 | 37022 ft | 475 kts | 124° |
| 2026-03-23 05:27 | 41.83125 | 15.15925 | 37017 ft | 475 kts | 124° |
| 2026-03-23 05:27 | 41.79528 | 15.23379 | 37016 ft | 475 kts | 124° |
| 2026-03-23 05:28 | 41.75949 | 15.30760 | 37013 ft | 475 kts | 124° |
| 2026-03-23 05:28 | 41.72350 | 15.38173 | 37011 ft | 474 kts | 124° |
| 2026-03-23 05:29 | 41.68742 | 15.45568 | 37015 ft | 474 kts | 125° |
| 2026-03-23 05:29 | 41.65137 | 15.52950 | 37016 ft | 473 kts | 125° |
| 2026-03-23 05:30 | 41.61534 | 15.60312 | 37021 ft | 473 kts | 125° |
| 2026-03-23 05:30 | 41.57932 | 15.67664 | 37014 ft | 473 kts | 125° |
| 2026-03-23 05:31 | 41.54336 | 15.74971 | 37018 ft | 473 kts | 125° |
| 2026-03-23 05:31 | 41.50715 | 15.82311 | 36999 ft | 473 kts | 125° |
| 2026-03-23 05:32 | 41.47081 | 15.89602 | 36972 ft | 474 kts | 126° |
| 2026-03-23 05:32 | 41.43374 | 15.96883 | 36981 ft | 474 kts | 126° |
| 2026-03-23 05:33 | 41.39658 | 16.04163 | 36983 ft | 474 kts | 126° |
| 2026-03-23 05:33 | 41.35968 | 16.11402 | 36985 ft | 474 kts | 126° |
| 2026-03-23 05:34 | 41.32261 | 16.18667 | 36987 ft | 474 kts | 126° |
| 2026-03-23 05:34 | 41.28535 | 16.25937 | 36993 ft | 474 kts | 126° |
| 2026-03-23 05:35 | 41.24812 | 16.33191 | 36992 ft | 474 kts | 126° |
| 2026-03-23 05:35 | 41.21108 | 16.40394 | 36986 ft | 475 kts | 126° |
| 2026-03-23 05:36 | 41.17372 | 16.47639 | 36990 ft | 476 kts | 127° |
| 2026-03-23 05:36 | 41.13618 | 16.54898 | 36995 ft | 477 kts | 127° |
| 2026-03-23 05:37 | 41.09859 | 16.62167 | 37001 ft | 477 kts | 127° |
| 2026-03-23 05:37 | 41.06116 | 16.69382 | 37008 ft | 477 kts | 127° |
| 2026-03-23 05:38 | 41.02345 | 16.76633 | 37008 ft | 477 kts | 127° |
| 2026-03-23 05:38 | 40.98588 | 16.83836 | 37005 ft | 477 kts | 127° |
| 2026-03-23 05:39 | 40.94805 | 16.91058 | 36993 ft | 477 kts | 127° |
| 2026-03-23 05:39 | 40.91015 | 16.98292 | 36966 ft | 478 kts | 127° |
| 2026-03-23 05:40 | 40.87209 | 17.05534 | 36962 ft | 480 kts | 127° |
| 2026-03-23 05:40 | 40.83390 | 17.12765 | 36965 ft | 481 kts | 127° |
| 2026-03-23 05:41 | 40.79558 | 17.20019 | 36969 ft | 481 kts | 127° |
| 2026-03-23 05:41 | 40.75750 | 17.27232 | 36979 ft | 482 kts | 127° |
| 2026-03-23 05:42 | 40.71903 | 17.34491 | 36993 ft | 482 kts | 127° |
| 2026-03-23 05:42 | 40.68057 | 17.41736 | 36985 ft | 482 kts | 127° |
| 2026-03-23 05:43 | 40.64205 | 17.48961 | 36978 ft | 482 kts | 128° |
| 2026-03-23 05:43 | 40.60366 | 17.56153 | 36971 ft | 483 kts | 128° |
| 2026-03-23 05:44 | 40.56495 | 17.63387 | 36965 ft | 483 kts | 128° |
| 2026-03-23 05:44 | 40.52614 | 17.70621 | 36968 ft | 484 kts | 128° |
| 2026-03-23 05:45 | 40.48747 | 17.77815 | 36967 ft | 484 kts | 128° |
| 2026-03-23 05:45 | 40.44843 | 17.85060 | 36972 ft | 485 kts | 128° |
| 2026-03-23 05:46 | 40.40961 | 17.92236 | 36981 ft | 485 kts | 128° |
| 2026-03-23 05:46 | 40.37047 | 17.99474 | 36985 ft | 485 kts | 128° |
| 2026-03-23 05:47 | 40.33139 | 18.06687 | 36980 ft | 486 kts | 128° |
| 2026-03-23 05:47 | 40.31170 | 18.10304 | 37171 ft | 488 kts | 128° |
| 2026-03-23 05:47 | 40.29196 | 18.13927 | 37408 ft | 488 kts | 128° |
| 2026-03-23 05:47 | 40.27242 | 18.17511 | 37661 ft | 488 kts | 128° |
| 2026-03-23 05:48 | 40.25245 | 18.21172 | 37923 ft | 487 kts | 128° |
| 2026-03-23 05:48 | 40.23300 | 18.24735 | 38179 ft | 487 kts | 128° |
| 2026-03-23 05:48 | 40.21328 | 18.28344 | 38419 ft | 486 kts | 128° |
| 2026-03-23 05:48 | 40.19363 | 18.31927 | 38658 ft | 485 kts | 128° |
| 2026-03-23 05:49 | 40.17390 | 18.35520 | 38841 ft | 485 kts | 128° |
| 2026-03-23 05:49 | 40.15414 | 18.39116 | 38951 ft | 485 kts | 128° |
| 2026-03-23 05:49 | 40.13466 | 18.42659 | 38976 ft | 485 kts | 128° |
| 2026-03-23 05:50 | 40.09526 | 18.49832 | 38963 ft | 485 kts | 128° |
| 2026-03-23 05:50 | 40.05594 | 18.56979 | 38961 ft | 485 kts | 128° |
| 2026-03-23 05:51 | 40.01633 | 18.64133 | 38963 ft | 487 kts | 129° |
| 2026-03-23 05:51 | 39.97650 | 18.71295 | 38958 ft | 487 kts | 129° |
| 2026-03-23 05:52 | 39.93688 | 18.78429 | 38957 ft | 488 kts | 129° |
| 2026-03-23 05:52 | 39.89700 | 18.85610 | 38976 ft | 489 kts | 129° |
| 2026-03-23 05:53 | 39.85708 | 18.92777 | 38980 ft | 489 kts | 129° |
| 2026-03-23 05:53 | 39.81692 | 18.99943 | 38995 ft | 489 kts | 129° |
| 2026-03-23 05:54 | 39.77758 | 19.07129 | 38995 ft | 489 kts | 128° |
| 2026-03-23 05:54 | 39.73873 | 19.14409 | 38996 ft | 489 kts | 127° |
| 2026-03-23 05:55 | 39.69986 | 19.21675 | 38964 ft | 490 kts | 128° |
| 2026-03-23 05:55 | 39.66077 | 19.28884 | 38964 ft | 491 kts | 128° |
| 2026-03-23 05:56 | 39.62132 | 19.36130 | 38973 ft | 491 kts | 128° |
| 2026-03-23 05:56 | 39.58190 | 19.43372 | 38977 ft | 492 kts | 128° |
| 2026-03-23 05:57 | 39.54238 | 19.50604 | 38987 ft | 492 kts | 128° |
| 2026-03-23 05:57 | 39.50279 | 19.57844 | 38982 ft | 491 kts | 128° |
| 2026-03-23 05:58 | 39.46358 | 19.65014 | 38984 ft | 491 kts | 128° |
| 2026-03-23 05:58 | 39.42400 | 19.72211 | 38974 ft | 491 kts | 129° |
| 2026-03-23 05:59 | 39.36433 | 19.83022 | 38960 ft | 492 kts | 129° |
| 2026-03-23 05:59 | 39.32466 | 19.90202 | 38961 ft | 493 kts | 129° |
| 2026-03-23 06:00 | 39.28477 | 19.97413 | 38967 ft | 493 kts | 129° |
| 2026-03-23 06:00 | 39.24476 | 20.04626 | 38969 ft | 494 kts | 129° |
| 2026-03-23 06:01 | 39.20488 | 20.11780 | 38976 ft | 494 kts | 129° |
| 2026-03-23 06:01 | 39.16469 | 20.18983 | 38979 ft | 494 kts | 129° |
| 2026-03-23 06:02 | 39.12439 | 20.26192 | 38982 ft | 495 kts | 129° |
| 2026-03-23 06:02 | 39.09098 | 20.32167 | 38969 ft | 495 kts | 129° |
| 2026-03-23 06:03 | 39.05051 | 20.39381 | 38977 ft | 496 kts | 129° |
| 2026-03-23 06:03 | 39.01032 | 20.46532 | 38983 ft | 496 kts | 129° |
| 2026-03-23 06:04 | 38.96981 | 20.53735 | 38993 ft | 497 kts | 129° |
| 2026-03-23 06:04 | 38.92913 | 20.60928 | 38994 ft | 497 kts | 129° |
| 2026-03-23 06:05 | 38.88862 | 20.68067 | 38991 ft | 497 kts | 129° |
| 2026-03-23 06:05 | 38.84776 | 20.75256 | 38989 ft | 497 kts | 129° |
| 2026-03-23 06:06 | 38.80695 | 20.82440 | 38989 ft | 497 kts | 129° |
| 2026-03-23 06:06 | 38.76640 | 20.89561 | 38995 ft | 498 kts | 129° |
| 2026-03-23 06:07 | 38.72541 | 20.96736 | 38994 ft | 498 kts | 129° |
| 2026-03-23 06:07 | 38.68441 | 21.03900 | 39002 ft | 498 kts | 129° |
| 2026-03-23 06:08 | 38.64362 | 21.11010 | 39003 ft | 498 kts | 129° |
| 2026-03-23 06:08 | 38.60247 | 21.18167 | 39013 ft | 498 kts | 129° |
| 2026-03-23 06:09 | 38.56142 | 21.25279 | 39004 ft | 499 kts | 129° |
| 2026-03-23 06:09 | 38.52017 | 21.32416 | 39006 ft | 499 kts | 129° |
| 2026-03-23 06:10 | 38.47889 | 21.39561 | 39000 ft | 499 kts | 129° |
| 2026-03-23 06:10 | 38.43785 | 21.46642 | 38985 ft | 499 kts | 129° |
| 2026-03-23 06:11 | 38.39636 | 21.53770 | 38988 ft | 499 kts | 130° |
| 2026-03-23 06:11 | 38.35508 | 21.60851 | 38994 ft | 500 kts | 129° |
| 2026-03-23 06:12 | 38.31352 | 21.67978 | 39004 ft | 500 kts | 130° |
| 2026-03-23 06:12 | 38.27193 | 21.75091 | 39000 ft | 500 kts | 130° |
| 2026-03-23 06:13 | 38.23027 | 21.82206 | 39010 ft | 501 kts | 129° |
| 2026-03-23 06:13 | 38.18853 | 21.89306 | 39012 ft | 501 kts | 130° |
| 2026-03-23 06:14 | 38.14698 | 21.96347 | 39015 ft | 502 kts | 130° |
| 2026-03-23 06:14 | 38.10507 | 22.03429 | 39000 ft | 502 kts | 130° |
| 2026-03-23 06:15 | 38.06312 | 22.10529 | 39000 ft | 502 kts | 130° |
| 2026-03-23 06:15 | 38.02114 | 22.17633 | 39010 ft | 503 kts | 130° |
| 2026-03-23 06:16 | 37.97903 | 22.24728 | 39012 ft | 503 kts | 130° |
| 2026-03-23 06:16 | 37.93704 | 22.31765 | 39023 ft | 503 kts | 130° |
| 2026-03-23 06:17 | 37.89482 | 22.38832 | 39029 ft | 503 kts | 130° |
| 2026-03-23 06:17 | 37.85248 | 22.45921 | 39033 ft | 503 kts | 130° |
| 2026-03-23 06:18 | 37.81012 | 22.52989 | 39030 ft | 503 kts | 130° |
| 2026-03-23 06:18 | 37.76781 | 22.60037 | 39003 ft | 503 kts | 130° |
| 2026-03-23 06:19 | 37.72569 | 22.67046 | 39007 ft | 504 kts | 130° |
| 2026-03-23 06:19 | 37.68316 | 22.74090 | 39002 ft | 504 kts | 130° |
| 2026-03-23 06:20 | 37.64056 | 22.81133 | 39004 ft | 504 kts | 130° |
| 2026-03-23 06:20 | 37.59811 | 22.88148 | 39007 ft | 505 kts | 130° |
| 2026-03-23 06:21 | 37.55535 | 22.95196 | 39007 ft | 505 kts | 130° |
| 2026-03-23 06:21 | 37.51258 | 23.02222 | 39004 ft | 505 kts | 130° |
| 2026-03-23 06:22 | 37.46970 | 23.09262 | 38980 ft | 505 kts | 130° |
| 2026-03-23 06:22 | 37.42709 | 23.16239 | 38991 ft | 506 kts | 130° |
| 2026-03-23 06:23 | 37.38412 | 23.23257 | 38989 ft | 506 kts | 130° |
| 2026-03-23 06:23 | 37.34102 | 23.30273 | 38985 ft | 506 kts | 130° |
| 2026-03-23 06:24 | 37.29824 | 23.37220 | 38990 ft | 506 kts | 130° |
| 2026-03-23 06:24 | 37.25520 | 23.44216 | 39000 ft | 506 kts | 130° |
| 2026-03-23 06:25 | 37.21209 | 23.51209 | 38991 ft | 506 kts | 130° |
| 2026-03-23 06:25 | 37.16883 | 23.58214 | 38990 ft | 507 kts | 130° |
| 2026-03-23 06:26 | 37.12558 | 23.65195 | 38960 ft | 507 kts | 131° |
| 2026-03-23 06:26 | 37.08230 | 23.72166 | 38974 ft | 507 kts | 131° |
| 2026-03-23 06:27 | 37.01717 | 23.82604 | 38974 ft | 508 kts | 131° |
| 2026-03-23 06:28 | 36.97359 | 23.89582 | 38971 ft | 508 kts | 131° |
| 2026-03-23 06:28 | 36.92994 | 23.96555 | 38973 ft | 509 kts | 131° |
| 2026-03-23 06:29 | 36.88650 | 24.03491 | 38972 ft | 509 kts | 131° |
| 2026-03-23 06:29 | 36.84276 | 24.10465 | 38974 ft | 510 kts | 131° |
| 2026-03-23 06:30 | 36.79891 | 24.17435 | 38943 ft | 510 kts | 131° |
| 2026-03-23 06:30 | 36.75524 | 24.24351 | 38953 ft | 510 kts | 131° |
| 2026-03-23 06:31 | 36.71120 | 24.31309 | 38950 ft | 511 kts | 131° |
| 2026-03-23 06:31 | 36.66715 | 24.38271 | 38969 ft | 511 kts | 131° |
| 2026-03-23 06:32 | 36.62293 | 24.45226 | 38963 ft | 511 kts | 131° |
| 2026-03-23 06:32 | 36.57902 | 24.52123 | 38955 ft | 511 kts | 131° |
| 2026-03-23 06:33 | 36.53472 | 24.59079 | 38950 ft | 511 kts | 131° |
| 2026-03-23 06:33 | 36.49054 | 24.66005 | 38941 ft | 511 kts | 131° |
| 2026-03-23 06:34 | 36.44656 | 24.72873 | 38918 ft | 511 kts | 131° |
| 2026-03-23 06:34 | 36.40215 | 24.79787 | 38929 ft | 512 kts | 131° |
| 2026-03-23 06:35 | 36.35764 | 24.86696 | 38935 ft | 512 kts | 131° |
| 2026-03-23 06:35 | 36.31316 | 24.93616 | 38942 ft | 512 kts | 131° |
| 2026-03-23 06:36 | 36.26869 | 25.00539 | 38947 ft | 513 kts | 131° |
| 2026-03-23 06:36 | 36.22436 | 25.07406 | 38952 ft | 513 kts | 131° |
| 2026-03-23 06:37 | 36.17950 | 25.14307 | 38939 ft | 513 kts | 132° |
| 2026-03-23 06:37 | 36.13490 | 25.21162 | 38937 ft | 514 kts | 131° |
| 2026-03-23 06:38 | 36.09005 | 25.28061 | 38916 ft | 514 kts | 132° |
| 2026-03-23 06:38 | 36.04520 | 25.34952 | 38931 ft | 515 kts | 132° |
| 2026-03-23 06:39 | 36.00037 | 25.41816 | 38929 ft | 515 kts | 132° |
| 2026-03-23 06:39 | 35.95520 | 25.48716 | 38931 ft | 515 kts | 132° |
| 2026-03-23 06:40 | 35.91006 | 25.55604 | 38929 ft | 515 kts | 132° |
| 2026-03-23 06:40 | 35.86515 | 25.62435 | 38927 ft | 515 kts | 132° |
| 2026-03-23 06:41 | 35.81996 | 25.69300 | 38929 ft | 516 kts | 132° |
| 2026-03-23 06:41 | 35.77462 | 25.76171 | 38927 ft | 516 kts | 132° |
| 2026-03-23 06:42 | 35.72913 | 25.83047 | 38910 ft | 517 kts | 132° |
| 2026-03-23 06:42 | 35.68397 | 25.89864 | 38918 ft | 517 kts | 132° |
| 2026-03-23 06:43 | 35.63848 | 25.96719 | 38929 ft | 517 kts | 132° |
| 2026-03-23 06:43 | 35.59291 | 26.03569 | 38920 ft | 517 kts | 132° |
| 2026-03-23 06:44 | 35.54747 | 26.10375 | 38921 ft | 518 kts | 132° |
| 2026-03-23 06:44 | 35.50182 | 26.17213 | 38922 ft | 518 kts | 132° |
| 2026-03-23 06:45 | 35.45614 | 26.24062 | 38919 ft | 518 kts | 132° |
| 2026-03-23 06:45 | 35.41031 | 26.30906 | 38917 ft | 518 kts | 132° |
| 2026-03-23 06:46 | 35.36448 | 26.37726 | 38918 ft | 518 kts | 133° |
| 2026-03-23 06:46 | 35.31891 | 26.44498 | 38919 ft | 518 kts | 133° |
| 2026-03-23 06:47 | 35.27291 | 26.51313 | 38918 ft | 519 kts | 133° |
| 2026-03-23 06:47 | 35.22688 | 26.58109 | 38925 ft | 519 kts | 132° |
| 2026-03-23 06:48 | 35.18076 | 26.64922 | 38923 ft | 519 kts | 132° |
| 2026-03-23 06:48 | 35.13473 | 26.71720 | 38921 ft | 519 kts | 132° |
| 2026-03-23 06:49 | 35.08878 | 26.78482 | 38915 ft | 519 kts | 133° |
| 2026-03-23 06:49 | 35.04263 | 26.85265 | 38896 ft | 519 kts | 133° |
| 2026-03-23 06:50 | 34.99636 | 26.92050 | 38903 ft | 520 kts | 133° |
| 2026-03-23 06:50 | 34.95002 | 26.98833 | 38907 ft | 520 kts | 133° |
| 2026-03-23 06:51 | 34.90391 | 27.05578 | 38913 ft | 520 kts | 133° |
| 2026-03-23 06:51 | 34.85742 | 27.12346 | 38913 ft | 520 kts | 133° |
| 2026-03-23 06:52 | 34.81868 | 27.17965 | 38914 ft | 520 kts | 133° |
| 2026-03-23 06:52 | 34.76458 | 27.25825 | 38920 ft | 520 kts | 133° |
| 2026-03-23 06:53 | 34.72560 | 27.31480 | 38920 ft | 520 kts | 133° |
| 2026-03-23 06:53 | 34.67918 | 27.38184 | 38902 ft | 521 kts | 133° |
| 2026-03-23 06:54 | 34.63240 | 27.44940 | 38912 ft | 521 kts | 133° |
| 2026-03-23 06:54 | 34.58596 | 27.51641 | 38912 ft | 521 kts | 133° |
| 2026-03-23 06:55 | 34.53906 | 27.58371 | 38913 ft | 521 kts | 133° |
| 2026-03-23 06:55 | 34.49223 | 27.65092 | 38914 ft | 521 kts | 133° |
| 2026-03-23 06:56 | 34.44571 | 27.71767 | 38915 ft | 521 kts | 133° |
| 2026-03-23 06:56 | 34.39883 | 27.78476 | 38918 ft | 521 kts | 133° |
| 2026-03-23 06:57 | 34.35184 | 27.85171 | 38897 ft | 521 kts | 133° |
| 2026-03-23 06:57 | 34.30494 | 27.91847 | 38911 ft | 521 kts | 133° |
| 2026-03-23 06:58 | 34.25795 | 27.98537 | 38917 ft | 521 kts | 133° |
| 2026-03-23 06:58 | 34.21088 | 28.05217 | 38920 ft | 521 kts | 134° |
| 2026-03-23 06:59 | 34.16373 | 28.11884 | 38919 ft | 521 kts | 134° |
| 2026-03-23 06:59 | 34.11678 | 28.18510 | 38918 ft | 522 kts | 134° |
| 2026-03-23 07:00 | 34.06948 | 28.25190 | 38919 ft | 522 kts | 133° |
| 2026-03-23 07:00 | 34.02224 | 28.31853 | 38921 ft | 522 kts | 133° |
| 2026-03-23 07:01 | 33.97532 | 28.38472 | 38906 ft | 522 kts | 134° |
| 2026-03-23 07:01 | 33.92794 | 28.45122 | 38912 ft | 523 kts | 134° |
| 2026-03-23 07:02 | 33.88052 | 28.51758 | 38912 ft | 523 kts | 134° |
| 2026-03-23 07:02 | 33.83326 | 28.58361 | 38921 ft | 523 kts | 134° |
| 2026-03-23 07:03 | 33.78570 | 28.64995 | 38920 ft | 523 kts | 134° |
| 2026-03-23 07:03 | 33.73806 | 28.71632 | 38931 ft | 523 kts | 134° |
| 2026-03-23 07:04 | 33.68792 | 28.77930 | 38927 ft | 519 kts | 141° |
| 2026-03-23 07:04 | 33.63529 | 28.83824 | 38896 ft | 520 kts | 141° |
| 2026-03-23 07:05 | 33.58227 | 28.89759 | 38902 ft | 520 kts | 141° |
| 2026-03-23 07:05 | 33.52961 | 28.95664 | 38916 ft | 521 kts | 141° |
| 2026-03-23 07:06 | 33.47650 | 29.01600 | 38926 ft | 521 kts | 141° |
| 2026-03-23 07:06 | 33.42346 | 29.07523 | 38928 ft | 521 kts | 141° |
| 2026-03-23 07:07 | 33.37059 | 29.13411 | 38930 ft | 521 kts | 141° |
| 2026-03-23 07:07 | 33.31741 | 29.19329 | 38897 ft | 522 kts | 141° |
| 2026-03-23 07:08 | 33.26410 | 29.25250 | 38925 ft | 522 kts | 141° |
| 2026-03-23 07:08 | 33.21109 | 29.31117 | 38927 ft | 522 kts | 141° |
| 2026-03-23 07:09 | 33.15777 | 29.37018 | 38927 ft | 523 kts | 141° |
| 2026-03-23 07:09 | 33.10440 | 29.42914 | 38931 ft | 523 kts | 141° |
| 2026-03-23 07:10 | 33.05095 | 29.48796 | 38938 ft | 523 kts | 141° |
| 2026-03-23 07:10 | 32.99740 | 29.54676 | 38915 ft | 523 kts | 141° |
| 2026-03-23 07:11 | 32.94374 | 29.60573 | 38916 ft | 523 kts | 141° |
| 2026-03-23 07:11 | 32.89045 | 29.66430 | 38922 ft | 524 kts | 141° |
| 2026-03-23 07:12 | 32.83677 | 29.72309 | 38929 ft | 524 kts | 141° |
| 2026-03-23 07:12 | 32.78305 | 29.78168 | 38934 ft | 524 kts | 141° |
| 2026-03-23 07:13 | 32.72928 | 29.84034 | 38942 ft | 524 kts | 141° |
| 2026-03-23 07:13 | 32.67551 | 29.89890 | 38906 ft | 524 kts | 141° |
| 2026-03-23 07:14 | 32.62177 | 29.95739 | 38909 ft | 524 kts | 141° |
| 2026-03-23 07:14 | 32.56810 | 30.01555 | 38918 ft | 525 kts | 142° |
| 2026-03-23 07:15 | 32.51394 | 30.07416 | 38929 ft | 526 kts | 141° |
| 2026-03-23 07:15 | 32.45989 | 30.13272 | 38936 ft | 526 kts | 141° |
| 2026-03-23 07:16 | 32.40612 | 30.19074 | 38946 ft | 525 kts | 141° |
| 2026-03-23 07:16 | 32.35200 | 30.24884 | 38946 ft | 525 kts | 142° |
| 2026-03-23 07:17 | 32.29781 | 30.30701 | 38910 ft | 526 kts | 142° |
| 2026-03-23 07:17 | 32.24347 | 30.36529 | 38913 ft | 527 kts | 142° |
| 2026-03-23 07:18 | 32.18898 | 30.42358 | 38926 ft | 528 kts | 142° |
| 2026-03-23 07:18 | 32.13446 | 30.48183 | 38941 ft | 528 kts | 142° |
| 2026-03-23 07:19 | 32.08030 | 30.53966 | 38945 ft | 528 kts | 142° |
| 2026-03-23 07:19 | 32.02575 | 30.59791 | 38949 ft | 528 kts | 142° |
| 2026-03-23 07:20 | 31.97116 | 30.65589 | 38953 ft | 528 kts | 142° |
| 2026-03-23 07:20 | 31.91682 | 30.71343 | 38947 ft | 528 kts | 142° |
| 2026-03-23 07:21 | 31.86215 | 30.77136 | 38950 ft | 528 kts | 142° |
| 2026-03-23 07:21 | 31.80753 | 30.82918 | 38950 ft | 528 kts | 142° |
| 2026-03-23 07:22 | 31.75322 | 30.88653 | 38952 ft | 528 kts | 142° |
| 2026-03-23 07:22 | 31.69852 | 30.94417 | 38946 ft | 528 kts | 142° |
| 2026-03-23 07:23 | 31.64378 | 31.00183 | 38924 ft | 528 kts | 142° |
| 2026-03-23 07:23 | 31.58889 | 31.05947 | 38931 ft | 529 kts | 142° |
| 2026-03-23 07:24 | 31.53471 | 31.11818 | 38939 ft | 533 kts | 135° |
| 2026-03-23 07:24 | 31.49024 | 31.18747 | 38943 ft | 535 kts | 126° |
| 2026-03-23 07:25 | 31.44762 | 31.25919 | 38957 ft | 536 kts | 126° |
| 2026-03-23 07:25 | 31.40486 | 31.33080 | 38966 ft | 535 kts | 126° |
| 2026-03-23 07:26 | 31.36238 | 31.40183 | 38961 ft | 534 kts | 126° |
| 2026-03-23 07:26 | 31.31966 | 31.47317 | 38963 ft | 534 kts | 126° |
| 2026-03-23 07:27 | 31.25592 | 31.57948 | 38936 ft | 535 kts | 126° |
| 2026-03-23 07:27 | 31.21308 | 31.65083 | 38932 ft | 535 kts | 126° |
| 2026-03-23 07:28 | 31.17014 | 31.72194 | 38937 ft | 536 kts | 127° |
| 2026-03-23 07:28 | 31.12702 | 31.79317 | 38945 ft | 536 kts | 126° |
| 2026-03-23 07:29 | 31.08409 | 31.86426 | 38967 ft | 535 kts | 126° |
| 2026-03-23 07:29 | 31.04133 | 31.93487 | 38972 ft | 534 kts | 126° |
| 2026-03-23 07:30 | 30.99849 | 32.00542 | 38972 ft | 534 kts | 127° |
| 2026-03-23 07:30 | 30.95552 | 32.07606 | 38953 ft | 533 kts | 127° |
| 2026-03-23 07:31 | 30.89116 | 32.18173 | 38966 ft | 532 kts | 127° |
| 2026-03-23 07:32 | 30.84826 | 32.25198 | 38942 ft | 532 kts | 127° |
| 2026-03-23 07:32 | 30.80528 | 32.32233 | 38935 ft | 533 kts | 127° |
| 2026-03-23 07:33 | 30.76242 | 32.39216 | 38945 ft | 533 kts | 127° |
| 2026-03-23 07:33 | 30.71925 | 32.46247 | 38952 ft | 534 kts | 127° |
| 2026-03-23 07:34 | 30.67598 | 32.53283 | 38956 ft | 534 kts | 127° |
| 2026-03-23 07:34 | 30.63273 | 32.60308 | 38959 ft | 534 kts | 127° |
| 2026-03-23 07:35 | 30.58975 | 32.67266 | 38967 ft | 533 kts | 127° |
| 2026-03-23 07:35 | 30.54634 | 32.74271 | 38967 ft | 533 kts | 127° |
| 2026-03-23 07:36 | 30.51030 | 32.80084 | 38968 ft | 533 kts | 127° |
| 2026-03-23 07:36 | 30.46002 | 32.88212 | 38965 ft | 533 kts | 127° |
| 2026-03-23 07:37 | 30.42377 | 32.94051 | 38944 ft | 532 kts | 127° |
| 2026-03-23 07:37 | 30.38055 | 33.00975 | 38948 ft | 532 kts | 127° |
| 2026-03-23 07:38 | 30.33706 | 33.07938 | 38951 ft | 532 kts | 127° |
| 2026-03-23 07:38 | 30.29364 | 33.14893 | 38948 ft | 532 kts | 127° |
| 2026-03-23 07:39 | 30.25051 | 33.21793 | 38960 ft | 532 kts | 127° |
| 2026-03-23 07:39 | 30.20705 | 33.28735 | 38965 ft | 531 kts | 127° |
| 2026-03-23 07:40 | 30.16356 | 33.35656 | 38967 ft | 531 kts | 127° |
| 2026-03-23 07:40 | 30.12008 | 33.42566 | 38966 ft | 532 kts | 127° |
| 2026-03-23 07:41 | 30.07685 | 33.49426 | 38981 ft | 532 kts | 127° |
| 2026-03-23 07:41 | 30.03331 | 33.56325 | 38971 ft | 531 kts | 128° |
| 2026-03-23 07:42 | 29.98957 | 33.63235 | 38952 ft | 531 kts | 127° |
| 2026-03-23 07:42 | 29.94613 | 33.70087 | 38950 ft | 533 kts | 127° |
| 2026-03-23 07:43 | 29.90232 | 33.77002 | 38957 ft | 534 kts | 128° |
| 2026-03-23 07:43 | 29.85836 | 33.83920 | 38964 ft | 534 kts | 128° |
| 2026-03-23 07:44 | 29.81479 | 33.90777 | 38960 ft | 534 kts | 128° |
| 2026-03-23 07:44 | 29.77084 | 33.97684 | 38965 ft | 534 kts | 128° |
| 2026-03-23 07:45 | 29.72690 | 34.04577 | 38972 ft | 533 kts | 128° |
| 2026-03-23 07:45 | 29.68284 | 34.11442 | 38973 ft | 532 kts | 128° |
| 2026-03-23 07:46 | 29.63892 | 34.18305 | 38971 ft | 532 kts | 125° |
| 2026-03-23 07:46 | 29.62112 | 34.21971 | 38971 ft | 531 kts | 111° |
| 2026-03-23 07:46 | 29.61019 | 34.26007 | 38972 ft | 525 kts | 97° |
| 2026-03-23 07:46 | 29.60665 | 34.30135 | 38969 ft | 517 kts | 84° |
| 2026-03-23 07:47 | 29.60683 | 34.34257 | 38970 ft | 516 kts | 84° |
| 2026-03-23 07:47 | 29.60708 | 34.42507 | 38967 ft | 516 kts | 84° |
| 2026-03-23 07:48 | 29.60711 | 34.50758 | 38965 ft | 516 kts | 85° |
| 2026-03-23 07:48 | 29.59699 | 34.58923 | 38951 ft | 523 kts | 112° |
| 2026-03-23 07:48 | 29.57978 | 34.62523 | 38959 ft | 521 kts | 129° |
| 2026-03-23 07:49 | 29.55516 | 34.65531 | 38944 ft | 513 kts | 144° |
| 2026-03-23 07:49 | 29.49989 | 34.70743 | 38932 ft | 514 kts | 145° |
| 2026-03-23 07:50 | 29.45016 | 34.76616 | 38934 ft | 520 kts | 118° |
| 2026-03-23 07:50 | 29.43698 | 34.80407 | 38932 ft | 515 kts | 99° |
| 2026-03-23 07:50 | 29.43095 | 34.84439 | 38927 ft | 512 kts | 95° |
| 2026-03-23 07:51 | 29.42029 | 34.92542 | 38919 ft | 514 kts | 95° |
| 2026-03-23 07:51 | 29.41707 | 34.96620 | 38910 ft | 507 kts | 82° |
| 2026-03-23 07:51 | 29.42210 | 35.00560 | 38919 ft | 495 kts | 69° |
| 2026-03-23 07:52 | 29.43957 | 35.08156 | 38919 ft | 495 kts | 68° |
| 2026-03-23 07:52 | 29.45978 | 35.15674 | 38920 ft | 483 kts | 54° |
| 2026-03-23 07:52 | 29.47809 | 35.18780 | 38920 ft | 460 kts | 36° |
| 2026-03-23 07:53 | 29.50145 | 35.21196 | 38924 ft | 448 kts | 29° |
| 2026-03-23 07:53 | 29.54945 | 35.25728 | 38948 ft | 450 kts | 30° |
| 2026-03-23 07:54 | 29.59772 | 35.30032 | 38940 ft | 423 kts | 20° |
| 2026-03-23 07:54 | 29.62390 | 35.31442 | 38941 ft | 408 kts | 8° |
| 2026-03-23 07:54 | 29.65091 | 35.32237 | 38939 ft | 396 kts | 1° |
| 2026-03-23 07:55 | 29.70512 | 35.33276 | 38940 ft | 388 kts | 352° |
| 2026-03-23 07:55 | 29.73150 | 35.33044 | 38963 ft | 373 kts | 339° |
| 2026-03-23 07:55 | 29.75598 | 35.32150 | 38942 ft | 365 kts | 328° |
| 2026-03-23 07:55 | 29.77746 | 35.30724 | 38941 ft | 358 kts | 317° |
| 2026-03-23 07:56 | 29.79572 | 35.28819 | 38944 ft | 353 kts | 307° |
| 2026-03-23 07:56 | 29.81943 | 35.23954 | 38944 ft | 349 kts | 287° |
| 2026-03-23 07:56 | 29.82407 | 35.21208 | 38945 ft | 351 kts | 276° |
| 2026-03-23 07:57 | 29.82334 | 35.18376 | 38944 ft | 357 kts | 265° |
| 2026-03-23 07:57 | 29.80564 | 35.12982 | 38941 ft | 375 kts | 244° |
| 2026-03-23 07:57 | 29.78873 | 35.10630 | 38923 ft | 388 kts | 232° |
| 2026-03-23 07:58 | 29.76673 | 35.08729 | 38927 ft | 403 kts | 218° |
| 2026-03-23 07:58 | 29.74032 | 35.07467 | 38929 ft | 421 kts | 203° |
| 2026-03-23 07:58 | 29.71061 | 35.07040 | 38929 ft | 440 kts | 187° |
| 2026-03-23 07:58 | 29.67975 | 35.07550 | 38928 ft | 457 kts | 170° |
| 2026-03-23 07:59 | 29.65062 | 35.09026 | 38925 ft | 471 kts | 152° |
| 2026-03-23 07:59 | 29.62524 | 35.11487 | 38921 ft | 480 kts | 132° |
| 2026-03-23 07:59 | 29.60570 | 35.14611 | 38916 ft | 483 kts | 124° |
| 2026-03-23 08:00 | 29.57124 | 35.21266 | 38912 ft | 486 kts | 121° |
| 2026-03-23 08:00 | 29.55239 | 35.24424 | 38898 ft | 483 kts | 137° |
| 2026-03-23 08:00 | 29.52684 | 35.26850 | 38898 ft | 469 kts | 158° |
| 2026-03-23 08:00 | 29.49715 | 35.28167 | 38890 ft | 448 kts | 179° |
| 2026-03-23 08:01 | 29.46678 | 35.28425 | 38949 ft | 431 kts | 197° |
| 2026-03-23 08:01 | 29.43888 | 35.27581 | 38938 ft | 402 kts | 220° |
| 2026-03-23 08:01 | 29.41795 | 35.25721 | 38937 ft | 373 kts | 242° |
| 2026-03-23 08:01 | 29.40645 | 35.23178 | 38927 ft | 349 kts | 266° |
| 2026-03-23 08:02 | 29.40625 | 35.20487 | 38933 ft | 335 kts | 288° |
| 2026-03-23 08:02 | 29.41664 | 35.18124 | 38934 ft | 336 kts | 307° |
| 2026-03-23 08:02 | 29.43302 | 35.16173 | 38935 ft | 342 kts | 315° |
| 2026-03-23 08:03 | 29.47284 | 35.13122 | 38932 ft | 351 kts | 327° |
| 2026-03-23 08:03 | 29.51925 | 35.11104 | 38930 ft | 363 kts | 338° |
| 2026-03-23 08:04 | 29.56770 | 35.09628 | 38986 ft | 352 kts | 326° |
| 2026-03-23 08:04 | 29.61091 | 35.07050 | 38938 ft | 360 kts | 336° |
| 2026-03-23 08:04 | 29.63623 | 35.06618 | 38930 ft | 379 kts | 354° |
| 2026-03-23 08:05 | 29.66284 | 35.06956 | 38931 ft | 387 kts | 359° |
| 2026-03-23 08:05 | 29.71638 | 35.08140 | 38926 ft | 396 kts | 5° |
| 2026-03-23 08:05 | 29.74251 | 35.09339 | 38922 ft | 414 kts | 20° |
| 2026-03-23 08:06 | 29.76630 | 35.11335 | 38922 ft | 432 kts | 35° |
| 2026-03-23 08:06 | 29.78545 | 35.14020 | 38920 ft | 450 kts | 52° |
| 2026-03-23 08:06 | 29.79803 | 35.17372 | 38930 ft | 465 kts | 71° |
| 2026-03-23 08:06 | 29.80141 | 35.21112 | 38918 ft | 475 kts | 92° |
| 2026-03-23 08:07 | 29.79448 | 35.24843 | 38927 ft | 479 kts | 113° |
| 2026-03-23 08:07 | 29.77792 | 35.28173 | 38942 ft | 479 kts | 133° |
| 2026-03-23 08:07 | 29.75372 | 35.30749 | 38937 ft | 469 kts | 153° |
| 2026-03-23 08:07 | 29.72480 | 35.32338 | 38915 ft | 454 kts | 173° |
| 2026-03-23 08:08 | 29.69442 | 35.32877 | 38939 ft | 438 kts | 191° |
| 2026-03-23 08:08 | 29.63469 | 35.32144 | 38940 ft | 429 kts | 199° |
| 2026-03-23 08:09 | 29.57906 | 35.30333 | 38940 ft | 402 kts | 221° |
| 2026-03-23 08:09 | 29.55707 | 35.28453 | 38942 ft | 386 kts | 234° |
| 2026-03-23 08:09 | 29.54004 | 35.26146 | 38940 ft | 372 kts | 246° |
| 2026-03-23 08:09 | 29.52854 | 35.23578 | 38931 ft | 360 kts | 258° |
| 2026-03-23 08:10 | 29.52282 | 35.20828 | 38902 ft | 349 kts | 270° |
| 2026-03-23 08:10 | 29.52294 | 35.18077 | 38915 ft | 341 kts | 282° |
| 2026-03-23 08:10 | 29.52842 | 35.15458 | 38905 ft | 336 kts | 292° |
| 2026-03-23 08:10 | 29.53889 | 35.13060 | 38924 ft | 336 kts | 303° |
| 2026-03-23 08:11 | 29.55375 | 35.10978 | 38926 ft | 340 kts | 313° |
| 2026-03-23 08:11 | 29.59444 | 35.08120 | 38947 ft | 360 kts | 335° |
| 2026-03-23 08:11 | 29.61952 | 35.07550 | 38948 ft | 375 kts | 348° |
| 2026-03-23 08:12 | 29.64618 | 35.07644 | 38950 ft | 386 kts | 356° |
| 2026-03-23 08:12 | 29.69972 | 35.08565 | 38948 ft | 394 kts | 1° |
| 2026-03-23 08:12 | 29.72664 | 35.09342 | 38939 ft | 406 kts | 13° |
| 2026-03-23 08:13 | 29.75188 | 35.10941 | 38949 ft | 425 kts | 28° |
| 2026-03-23 08:13 | 29.77375 | 35.13347 | 38943 ft | 443 kts | 44° |
| 2026-03-23 08:13 | 29.78974 | 35.16461 | 38957 ft | 460 kts | 63° |
| 2026-03-23 08:13 | 29.79704 | 35.20038 | 38943 ft | 473 kts | 84° |
| 2026-03-23 08:14 | 29.79410 | 35.23828 | 38921 ft | 479 kts | 105° |
| 2026-03-23 08:14 | 29.78082 | 35.27324 | 38938 ft | 478 kts | 127° |
| 2026-03-23 08:14 | 29.75885 | 35.30151 | 38938 ft | 472 kts | 148° |
| 2026-03-23 08:14 | 29.73095 | 35.32025 | 38915 ft | 458 kts | 168° |
| 2026-03-23 08:15 | 29.70057 | 35.32824 | 38942 ft | 441 kts | 186° |
| 2026-03-23 08:15 | 29.64109 | 35.32255 | 38939 ft | 428 kts | 199° |
| 2026-03-23 08:16 | 29.58434 | 35.30665 | 38641 ft | 402 kts | 218° |
| 2026-03-23 08:16 | 29.56174 | 35.28939 | 38234 ft | 381 kts | 232° |
| 2026-03-23 08:16 | 29.54409 | 35.26775 | 37818 ft | 363 kts | 243° |
| 2026-03-23 08:16 | 29.53125 | 35.24326 | 36925 ft | 353 kts | 255° |
| 2026-03-23 08:17 | 29.52424 | 35.21678 | 36108 ft | 340 kts | 268° |
| 2026-03-23 08:17 | 29.52280 | 35.19057 | 35511 ft | 327 kts | 277° |
| 2026-03-23 08:17 | 29.52616 | 35.16515 | 34866 ft | 320 kts | 285° |
| 2026-03-23 08:17 | 29.53143 | 35.13984 | 33731 ft | 331 kts | 285° |
| 2026-03-23 08:18 | 29.53683 | 35.11390 | 32600 ft | 336 kts | 284° |
| 2026-03-23 08:18 | 29.54253 | 35.08773 | 31679 ft | 337 kts | 285° |
| 2026-03-23 08:18 | 29.54834 | 35.06204 | 30886 ft | 335 kts | 284° |
| 2026-03-23 08:18 | 29.55437 | 35.03623 | 30157 ft | 334 kts | 285° |
| 2026-03-23 08:19 | 29.56053 | 35.01056 | 29335 ft | 332 kts | 285° |
| 2026-03-23 08:19 | 29.56668 | 34.98506 | 28597 ft | 329 kts | 285° |
| 2026-03-23 08:19 | 29.57296 | 34.96000 | 27903 ft | 324 kts | 290° |
| 2026-03-23 08:19 | 29.58479 | 34.93810 | 27215 ft | 325 kts | 311° |
| 2026-03-23 08:20 | 29.60344 | 34.92320 | 26504 ft | 333 kts | 332° |
| 2026-03-23 08:20 | 29.62615 | 34.91758 | 25814 ft | 346 kts | 352° |
| 2026-03-23 08:20 | 29.65027 | 34.92229 | 25107 ft | 361 kts | 14° |
| 2026-03-23 08:20 | 29.67232 | 34.93715 | 24403 ft | 373 kts | 32° |
| 2026-03-23 08:21 | 29.69221 | 34.95671 | 23705 ft | 375 kts | 34° |
| 2026-03-23 08:21 | 29.71164 | 34.97660 | 22945 ft | 372 kts | 35° |
| 2026-03-23 08:21 | 29.73099 | 34.99638 | 22180 ft | 368 kts | 35° |
| 2026-03-23 08:21 | 29.75016 | 35.01570 | 21437 ft | 366 kts | 35° |
| 2026-03-23 08:22 | 29.76913 | 35.03464 | 20741 ft | 362 kts | 35° |
| 2026-03-23 08:22 | 29.78758 | 35.05441 | 20055 ft | 364 kts | 46° |
| 2026-03-23 08:22 | 29.80011 | 35.07974 | 19428 ft | 367 kts | 70° |
| 2026-03-23 08:22 | 29.80487 | 35.10821 | 18809 ft | 366 kts | 83° |
| 2026-03-23 08:23 | 29.80724 | 35.13741 | 18200 ft | 364 kts | 85° |
| 2026-03-23 08:23 | 29.80833 | 35.16634 | 17499 ft | 359 kts | 97° |
| 2026-03-23 08:23 | 29.80210 | 35.19366 | 16882 ft | 349 kts | 118° |
| 2026-03-23 08:23 | 29.78898 | 35.21661 | 16234 ft | 338 kts | 138° |
| 2026-03-23 08:24 | 29.77096 | 35.23310 | 15606 ft | 326 kts | 156° |
| 2026-03-23 08:24 | 29.75062 | 35.24379 | 14898 ft | 320 kts | 162° |
| 2026-03-23 08:24 | 29.73037 | 35.25366 | 14296 ft | 318 kts | 163° |
| 2026-03-23 08:24 | 29.70991 | 35.26302 | 13690 ft | 311 kts | 170° |
| 2026-03-23 08:25 | 29.68895 | 35.26611 | 13034 ft | 298 kts | 189° |
| 2026-03-23 08:25 | 29.66922 | 35.26138 | 12410 ft | 286 kts | 202° |
| 2026-03-23 08:25 | 29.65668 | 35.25672 | 11985 ft | 285 kts | 203° |
| 2026-03-23 08:25 | 29.63337 | 35.24379 | 11123 ft | 278 kts | 214° |
| 2026-03-23 08:26 | 29.61683 | 35.23236 | 10485 ft | 276 kts | 214° |
| 2026-03-23 08:26 | 29.60575 | 35.22448 | 10170 ft | 278 kts | 215° |
| 2026-03-23 08:26 | 29.58951 | 35.21273 | 9872 ft | 277 kts | 214° |
| 2026-03-23 08:26 | 29.57330 | 35.20094 | 9636 ft | 275 kts | 214° |
| 2026-03-23 08:27 | 29.55719 | 35.18917 | 9396 ft | 274 kts | 215° |
| 2026-03-23 08:27 | 29.54252 | 35.17565 | 9148 ft | 266 kts | 227° |
| 2026-03-23 08:27 | 29.52970 | 35.16054 | 8893 ft | 262 kts | 227° |
| 2026-03-23 08:27 | 29.51700 | 35.14563 | 8657 ft | 259 kts | 227° |
| 2026-03-23 08:28 | 29.50450 | 35.13095 | 8451 ft | 253 kts | 227° |
| 2026-03-23 08:28 | 29.49237 | 35.11674 | 8181 ft | 252 kts | 226° |
| 2026-03-23 08:28 | 29.48031 | 35.10262 | 7899 ft | 242 kts | 226° |
| 2026-03-23 08:28 | 29.46867 | 35.08899 | 7501 ft | 238 kts | 226° |
| 2026-03-23 08:29 | 29.45708 | 35.07543 | 7033 ft | 237 kts | 226° |
| 2026-03-23 08:29 | 29.44557 | 35.06193 | 6566 ft | 236 kts | 225° |
| 2026-03-23 08:29 | 29.43412 | 35.04851 | 6093 ft | 235 kts | 225° |
| 2026-03-23 08:29 | 29.42263 | 35.03505 | 5640 ft | 234 kts | 225° |
| 2026-03-23 08:30 | 29.41136 | 35.02186 | 5243 ft | 229 kts | 225° |
| 2026-03-23 08:30 | 29.40037 | 35.00907 | 4852 ft | 226 kts | 225° |
| 2026-03-23 08:30 | 29.38948 | 34.99626 | 4440 ft | 223 kts | 230° |
| 2026-03-23 08:30 | 29.38305 | 34.98042 | 4075 ft | 221 kts | 264° |
| 2026-03-23 08:31 | 29.38500 | 34.96312 | 3797 ft | 221 kts | 292° |
| 2026-03-23 08:31 | 29.39392 | 34.94931 | 3627 ft | 213 kts | 321° |
| 2026-03-23 08:31 | 29.40677 | 34.94213 | 3475 ft | 206 kts | 349° |
| 2026-03-23 08:31 | 29.42071 | 34.94236 | 3325 ft | 198 kts | 16° |
| 2026-03-23 08:32 | 29.43333 | 34.94800 | 3322 ft | 192 kts | 22° |
| 2026-03-23 08:32 | 29.44580 | 34.95379 | 3351 ft | 194 kts | 22° |
| 2026-03-23 08:32 | 29.45820 | 34.95945 | 3230 ft | 195 kts | 22° |
| 2026-03-23 08:32 | 29.47107 | 34.96532 | 2778 ft | 201 kts | 22° |
| 2026-03-23 08:33 | 29.48400 | 34.97122 | 2484 ft | 197 kts | 22° |
| 2026-03-23 08:33 | 29.49636 | 34.97699 | 2261 ft | 185 kts | 21° |
| 2026-03-23 08:33 | 29.50801 | 34.98162 | 2038 ft | 169 kts | 18° |
| 2026-03-23 08:34 | 29.52776 | 34.98871 | 1642 ft | 136 kts | 16° |
| 2026-03-23 08:34 | 29.53652 | 34.99180 | 1490 ft | 131 kts | 15° |
| 2026-03-23 08:34 | 29.54532 | 34.99488 | 1317 ft | 133 kts | 15° |
| 2026-03-23 08:34 | 29.55425 | 34.99800 | 1135 ft | 134 kts | 14° |
| 2026-03-23 08:35 | 29.56310 | 35.00111 | 960 ft | 133 kts | 15° |
| 2026-03-23 08:35 | 29.57183 | 35.00427 | 710 ft | 130 kts | 14° |
| 2026-03-23 08:35 | 29.58033 | 35.00721 | 574 ft | 125 kts | 15° |
| 2026-03-23 08:35 | 29.58863 | 35.00990 | 419 ft | 125 kts | 15° |
| 2026-03-23 08:36 | 29.59687 | 35.01290 | 242 ft | 124 kts | 16° |
| 2026-03-23 08:36 | 29.60454 | 35.01555 | 176 ft | 98 kts | 17° |
| 2026-03-23 08:36 | 29.60961 | 35.01731 | 174 ft | 60 kts | 17° |
| 2026-03-23 08:36 | 29.61250 | 35.01834 | 173 ft | 20 kts | 18° |
| 2026-03-23 08:37 | 29.61343 | 35.01887 | 173 ft | 8 kts | 30° |
| 2026-03-23 08:37 | 29.61352 | 35.01869 | 173 ft | 3 kts | 235° |
| 2026-03-23 08:37 | 29.61290 | 35.01845 | 173 ft | 13 kts | 198° |
| 2026-03-23 08:37 | 29.61198 | 35.01819 | 173 ft | 13 kts | 172° |
| 2026-03-23 08:38 | 29.61153 | 35.01895 | 175 ft | 12 kts | 106° |
| 2026-03-23 08:38 | 29.61143 | 35.01935 | 175 ft | 4 kts | 107° |
| 2026-03-23 08:38 | 29.61129 | 35.01974 | 176 ft | 6 kts | 127° |
| 2026-03-23 08:38 | 29.61084 | 35.01973 | 176 ft | 8 kts | 195° |
| 2026-03-23 08:39 | 29.61038 | 35.01974 | 176 ft | 6 kts | 124° |
| 2026-03-23 08:39 | 29.61025 | 35.02008 | 176 ft | 4 kts | 107° |
| 2026-03-23 08:39 | 29.61022 | 35.02020 | 176 ft | 0 kts | 107° |